Pegasus B738 at Bologna on Sep 4th 2016, damaged runway surface on landing

Last Update: September 4, 2016 / 18:02:18 GMT/Zulu time

Bookmark this article
Incident Facts

Date of incident
Sep 4, 2016

Classification
Incident

Flight number
PC-423

Destination
Bologna, Italy

Aircraft Registration
TC-ARP

Aircraft Type
Boeing 737-800

ICAO Type Designator
B738

Airport ICAO Code
LIPE

A Pegasus Boeing 737-800, registration TC-ARP performing flight PC-423 from Istanbul Sabiha Gokcen (Turkey) to Bologna (Italy), landed on Bologna's runway 12 at 14:37L (12:37Z), slowed and vacated the runway via high speed turn off G.

The airport reported the runway needed to be closed due to a gear problem of the landing flight PC-423. A tyre had burst and an additional problem with the landing gear caused the aircraft to cut the runway surface over a length of about one meter right in the middle of the touch down zone.

A ground observer reported the aircraft landed with a fractured wheel and caused runway surface damage over a length of 300 meters/1000 feet.

Related NOTAM:
A6034/16 - RUNWAY 12/30 CLSD DUE TO WIP. REF AIP AD 2 LIPE 2-1. 04 SEP 17:25 2016 UNTIL 04 SEP 18:00 2016. CREATED: 04 SEP 17:25 2016

Metars:
LIPE 041350Z VRB03KT CAVOK 33/15 Q1014
LIPE 041320Z 13004KT 090V180 CAVOK 33/16 Q1014
LIPE 041250Z 35005KT 290V040 CAVOK 33/16 Q1014
LIPE 041220Z VRB04KT CAVOK 33/16 Q1015
LIPE 041150Z 05004KT 350V140 CAVOK 32/15 Q1015
LIPE 041120Z 36004KT 300V080 CAVOK 31/16 Q1015
LIPE 041050Z 03004KT 330V080 CAVOK 31/16 Q1016
LIPE 041020Z 35003KT 290V070 CAVOK 30/16 Q1016
LIPE 040950Z VRB03KT CAVOK 29/16 Q1016
LIPE 040920Z 30004KT 220V030 CAVOK 28/16 Q1017
Incident Facts

Date of incident
Sep 4, 2016

Classification
Incident

Flight number
PC-423

Destination
Bologna, Italy

Aircraft Registration
TC-ARP

Aircraft Type
Boeing 737-800

ICAO Type Designator
B738

Airport ICAO Code
LIPE

This article is published under license from Avherald.com. © of text by Avherald.com.
Article source

You can read 2 more free articles without a subscription.

Subscribe now and continue reading without any limits!

Are you a subscriber? Login
Subscribe

Read unlimited articles and receive our daily update briefing. Gain better insights into what is happening in commercial aviation safety.

Free newsletter

Want to know more and stay ahead? Get our free weekly newsletter and join 5591 existing subscribers.

By subscribing, you accept our terms and conditions and confirm that you've read our privacy policy.

Send tip

Support AeroInside by sending a small tip amount.

Related articles

Newest articles

Subscribe today

Are you researching aviation incidents? Get access to AeroInside Insights, unlimited read access and receive the daily newsletter.

Pick your plan and subscribe

Partner

Blockaviation logo

A new way to document and demonstrate airworthiness compliance and aircraft value. Find out more.

Virtual Speech logo

ELITE Simulation Solutions is a leading global provider of Flight Simulation Training Devices, IFR training software as well as flight controls and related services. Find out more.

Get updates

Never miss an article from AeroInside. Subscribe to our free weekly newsletter and join 5591 existing subscribers.

By subscribing, you accept our terms and conditions and that you've read our privacy policy.

AeroInside Blog
Popular aircraft
Airbus A320
Boeing 737-800
Boeing 737-800 MAX
Popular airlines
American Airlines
United
Delta
Air Canada
Lufthansa
British Airways